Clearwater, FL

6:21 PM EDT on August 30, 2014 (GMT -0400)
N San Remo | Change Station
CLOSE
Current Station
Personal Weather Station
Location: Clearwater, FL
Elevation: 35 ft
Nearby Weather Stations

Elev 35 ft 27.97 °N, 82.78 °W | Updated 3 minutes ago

Rain
Rain
89.1 °F
Feels Like 100 °F
N
0.0
Wind Variable Wind from SW
Gusts 0.0 mph

Today
High -- | Low -- °F
--% Chance of Precip.
Yesterday
High -- | Low -- °F
Precip. -- in
7:08 AM 7:54 PM
Waxing Crescent, 25% visible
Pressure 30.03 in
Visibility 10.0 miles
Clouds Clear
Heat Index 100 °F
Dew Point 75 °F
Humidity 64%
Rainfall 0.00 in
Snow Depth Not available.
UV 0.0 out of 12
Pollen 4.30 out of 12
Air Quality Not available.
Flu Activity Not available.
METAR KPIE 302153Z 01011KT 10SM VCTS CLR 31/24 A3003 RMK AO2 LTG DSNT E AND SE TSB36E53 SLP168 T03110244

More Conditions Fewer Conditions

Pressure 30.03 in
Visibility 10.0 miles
Clouds Clear
Heat Index 100 °F
Dew Point 75 °F
Humidity 64%
Rainfall 0.00 in
Snow Depth Not available.
UV 0.0 out of 12
Pollen 4.30 out of 12
Air Quality Not available.
Flu Activity Not available.
METAR KPIE 302153Z 01011KT 10SM VCTS CLR 31/24 A3003 RMK AO2 LTG DSNT E AND SE TSB36E53 SLP168 T03110244

More Conditions Fewer Conditions

10-Day Weather Forecast

Almanac

Astronomy

Aug. 30, 2014 Rise Set
Actual Time 7:08 AM EDT 7:54 PM EDT
Civil Twilight 6:44 AM EDT 8:18 PM EDT
Nautical Twilight 6:16 AM EDT 8:46 PM EDT
Astronomical Twilight 5:47 AM EDT 9:14 PM EDT
Moon 11:28 AM EDT 10:56 PM EDT
Length of Visible Light 13h 33m
Length of Day
12h 45m
Tomorrow will be 1m 35s shorter.
Waxing Crescent, 25% of the Moon is Illuminated
Today
Waxing Crescent
Sep 2
First Quarter
Sep 8
Full
Sep 15
Last Quarter
Sep 24
New

Today's Extremes

State Highs State Lows

Community

WunderPhotos

Upload Photos

1,748,657 photos uploaded!

WunderBlogs® & News

Nearby

Air Quality

  Air Quality AQ Index Pollutant
Saturday Good
PM2.5
Saturday Good
OZONE
Sunday Good
PM2.5
Sunday Good
OZONE
Monday Good
PM2.5
Monday Good
OZONE

Snow Depth

Station Depth Elevation
No new snow has been reported.

Earthquake Activity

City Distance Mag. Time & Date
No recent earthquake activity has been reported nearby.
Minimum magnitude displayed is 2.5.

Coastal Water Temperatures

Place Temperature
Clearwater Beach, FL 88.0 °F
Port Manatee, FL 88.0 °F
St Petersburg, FL 90.0 °F
Old Port Tampa, FL 88.0 °F
McKay Bay Entrance, FL 89.1 °F

Nearby Weather Stations